• Join FlightAware (Why Join?)
  • Login
  • US Flag 
03:06AM EDT


 

Airport Tracker/Info


-or-


 

Live Flight TrackerFlight Track Log ✈ UAL1021 ✈ 14-Jul-2013 ✈ KEWR - MPTO / PTY

Flight Track Log - Related Links

Times and Time Zones

All times are in EDT time to prevent confusion due to time zone crossing. See the UAL1021 flight status page for this flight to view local times or setup timezone preferences in your user account.

Time Position Orientation Groundspeed Altitude Reporting Facility
EDT Latitude Longitude Course Direction KTS MPH feet Rate Location/Type
06:21PM 40.6603 -74.1824 37° Northeast 181 208 1,000  Level FlightAware ADS-B
06:21PM 40.6479 -74.1841 186° South 190 219 1,200 1,140 Climbing FlightAware ADS-B
06:22PM 40.6425 -74.1874 205° Southwest 198 228 1,400 2,040 Climbing FlightAware ADS-B
06:22PM 40.6283 -74.1959 204° Southwest 203 234 2,000 1,560 Climbing FlightAware ADS-B
06:22PM 40.6011 -74.2219 216° Southwest 208 239 2,700 1,440 Climbing FlightAware ADS-B
06:23PM 40.5930 -74.2300 217° Southwest 243 280 3,000 1,980 Climbing FlightAware ADS-B
06:23PM 40.5755 -74.2474 217° Southwest 260 299 3,600 2,400 Climbing FlightAware ADS-B
06:23PM 40.5593 -74.2630 216° Southwest 264 304 4,400 2,520 Climbing FlightAware ADS-B
06:24PM 40.5279 -74.2683 187° South 283 326 5,400 2,280 Climbing FlightAware ADS-B
06:24PM 40.5212 -74.2656 163° South 287 330 5,600 1,500 Climbing FlightAware ADS-B
06:24PM 40.5135 -74.2617 159° South 288 331 5,700 300 Climbing FlightAware ADS-B
06:24PM 40.4997 -74.2546 159° South 289 333 5,700  Level FlightAware ADS-B
06:24PM 40.4894 -74.2492 158° South 290 334 5,700  Level FlightAware ADS-B
06:24PM 40.4799 -74.2443 159° South 290 334 5,700  Level FlightAware ADS-B
06:24PM 40.4677 -74.2378 158° South 289 333 5,700  Level FlightAware ADS-B
06:25PM 40.4529 -74.2302 159° South 289 333 5,700  Level FlightAware ADS-B
06:25PM 40.4244 -74.2161 159° South 287 330 5,700  Level FlightAware ADS-B
06:25PM 40.4037 -74.2065 161° South 287 330 5,700  Level FlightAware ADS-B
06:25PM 40.3849 -74.1973 160° South 287 330 5,700 360 Level FlightAware ADS-B
06:26PM 40.3651 -74.1871 159° South 290 334 5,900 1,500 Climbing FlightAware ADS-B
06:26PM 40.3458 -74.1771 158° South 290 334 6,500 2,580 Climbing FlightAware ADS-B
06:26PM 40.3369 -74.1728 160° South 288 331 6,900 3,420 Climbing FlightAware ADS-B
06:26PM 40.3273 -74.1693 164° South 286 329 7,300 2,760 Climbing FlightAware ADS-B
06:26PM 40.3202 -74.1684 174° South 284 327 7,500 2,400 Climbing FlightAware ADS-B
06:26PM 40.3148 -74.1689 184° South 283 326 7,700 3,000 Climbing FlightAware ADS-B
06:26PM 40.3092 -74.1704 192° South 282 325 7,900 2,220 Climbing FlightAware ADS-B
06:27PM 40.3045 -74.1724 198° South 281 323 8,000 2,220 Climbing FlightAware ADS-B
06:27PM 40.2991 -74.1756 204° Southwest 282 325 8,200 2,220 Climbing FlightAware ADS-B
06:27PM 40.2945 -74.1793 212° Southwest 281 323 8,300 2,400 Climbing FlightAware ADS-B
06:27PM 40.2884 -74.1852 216° Southwest 282 325 8,600 2,340 Climbing FlightAware ADS-B
06:27PM 40.2712 -74.2024 217° Southwest 285 328 9,200 1,980 Climbing FlightAware ADS-B
06:28PM 40.2377 -74.2345 216° Southwest 288 331 10,200 1,440 Climbing FlightAware ADS-B
06:28PM 40.2009 -74.2695 216° Southwest 326 375 10,700 1,440 Climbing FlightAware ADS-B
06:29PM 40.1544 -74.3136 216° Southwest 351 404 11,800 1,920 Climbing FlightAware ADS-B
06:29PM 40.1038 -74.3615 216° Southwest 362 417 13,100 1,920 Climbing FlightAware ADS-B
06:30PM 40.0616 -74.4014 216° Southwest 377 434 14,000 1,800 Climbing FlightAware ADS-B
06:30PM 40.0163 -74.4443 216° Southwest 383 441 15,000 1,740 Climbing FlightAware ADS-B
06:31PM 39.9702 -74.4877 216° Southwest 392 451 15,900 1,800 Climbing FlightAware ADS-B
06:32PM 39.9124 -74.5422 216° Southwest 399 459 17,200 1,920 Climbing FlightAware ADS-B
06:32PM 39.8660 -74.5859 216° Southwest 402 463 18,200 1,860 Climbing FlightAware ADS-B
06:33PM 39.8191 -74.6298 216° Southwest 405 466 19,100 1,500 Climbing FlightAware ADS-B
06:33PM 39.7705 -74.6752 216° Southwest 415 478 19,800 1,260 Climbing FlightAware ADS-B
06:34PM 39.7196 -74.7227 216° Southwest 425 489 20,500 1,380 Climbing FlightAware ADS-B
06:34PM 39.6861 -74.7512 213° Southwest 430 495 21,000 1,500 Climbing FlightAware ADS-B
06:34PM 39.6730 -74.7602 208° Southwest 431 496 21,200 1,380 Climbing FlightAware ADS-B
06:35PM 39.6178 -74.7922 204° Southwest 436 502 21,900 1,380 Climbing FlightAware ADS-B
06:35PM 39.5618 -74.8242 204° Southwest 442 509 22,600 1,380 Climbing FlightAware ADS-B
06:36PM 39.4990 -74.8602 204° Southwest 448 516 23,400 1,380 Climbing FlightAware ADS-B
06:36PM 39.4400 -74.8940 204° Southwest 452 520 24,100 1,320 Climbing FlightAware ADS-B
06:37PM 39.3808 -74.9280 204° Southwest 455 524 24,800 1,200 Climbing FlightAware ADS-B
06:37PM 39.3209 -74.9621 204° Southwest 458 527 25,400 1,740 Climbing FlightAware ADS-B
06:38PM 39.2610 -74.9963 204° Southwest 447 514 26,600 1,800 Climbing FlightAware ADS-B
06:38PM 39.2040 -75.0287 204° Southwest 447 514 27,300 1,140 Climbing FlightAware ADS-B
06:39PM 39.1336 -75.0686 204° Southwest 453 521 27,900 960 Climbing FlightAware ADS-B
06:39PM 39.0748 -75.1019 204° Southwest 457 526 28,400 1,020 Climbing FlightAware ADS-B
06:40PM 39.0128 -75.1370 204° Southwest 461 531 29,000 1,020 Climbing FlightAware ADS-B
06:40PM 38.9594 -75.1596 198° South 464 534 29,400 840 Climbing FlightAware ADS-B
06:41PM 38.8952 -75.1797 194° South 466 536 29,800 780 Climbing FlightAware ADS-B
06:42PM 38.7680 -75.2190 194° South 475 547 30,600 780 Climbing FlightAware
06:42PM 38.7374 -75.2286 194° South 469 540 30,800 780 Climbing FlightAware ADS-B
06:43PM 38.6538 -75.2549 194° South 483 556 31,300 660 Climbing FlightAware ADS-B
06:43PM 38.5587 -75.3049 202° Southwest 487 560 31,800 540 Climbing FlightAware ADS-B
06:44PM 38.4967 -75.3404 204° Southwest 488 562 32,000 120 Climbing FlightAware ADS-B
06:45PM 38.4197 -75.3845 204° Southwest 490 564 32,000  Level FlightAware ADS-B
06:45PM 38.3185 -75.4423 204° Southwest 490 564 32,000  Level FlightAware ADS-B
06:46PM 38.2550 -75.4785 204° Southwest 490 564 32,000  Level FlightAware ADS-B
06:46PM 38.1793 -75.5213 204° Southwest 490 564 32,000  Level FlightAware ADS-B
06:47PM 38.0800 -75.5780 204° Southwest 481 554 32,000  Level FlightAware
06:48PM 38.0302 -75.6061 204° Southwest 490 564 32,000 60 Level FlightAware ADS-B
06:48PM 37.9494 -75.6505 203° Southwest 490 564 32,100 360 Climbing FlightAware ADS-B
06:49PM 37.9081 -75.6666 197° South 490 564 32,400 960 Climbing FlightAware ADS-B
06:49PM 37.8292 -75.6949 196° South 487 560 33,000 900 Climbing FlightAware ADS-B
06:50PM 37.7320 -75.7290 196° South 484 557 33,700 660 Climbing FlightAware
06:51PM 37.6390 -75.7620 196° South 481 554 34,000 180 Climbing FlightAware
06:52PM 37.5400 -75.7970 196° South 487 560 34,000  Level FlightAware
06:52PM 37.4690 -75.8220 196° South 488 562 34,000  Level FlightAware
06:53PM 37.3470 -75.8650 196° South 481 554 34,000  Level FlightAware
06:54PM 37.2550 -75.8970 195° South 483 556 34,000  Level FlightAware
06:55PM 37.0560 -75.9670 196° South 485 558 34,000  Level FlightAware
06:56PM 36.9650 -75.9990 196° South 493 567 34,000  Level FlightAware
06:57PM 36.8840 -76.0260 195° South 485 558 34,000  Level FlightAware
06:58PM 36.7620 -76.0680 195° South 488 562 34,000  Level FlightAware
06:58PM 36.6950 -76.0900 195° South 488 562 34,000  Level FlightAware
06:59PM 36.5330 -76.1480 196° South 499 574 34,000  Level FlightAware
07:00PM 36.4520 -76.1750 195° South 487 560 34,000  Level FlightAware
07:01PM 36.3420 -76.2130 196° South 487 560 34,000  Level FlightAware
07:01PM 36.2610 -76.2410 196° South 487 560 34,000  Level FlightAware
07:02PM 36.1620 -76.2750 195° South 487 560 34,000  Level FlightAware
07:03PM 36.0750 -76.3040 195° South 487 560 34,000  Level FlightAware
07:03PM 36.0100 -76.3260 195° South 487 560 34,000  Level FlightAware
07:04PM 35.9440 -76.3480 195° South 487 560 34,000  Level FlightAware
07:05PM 35.8550 -76.3770 195° South 487 560 34,000  Level FlightAware
07:05PM 35.7880 -76.3990 195° South 487 560 34,000  Level FlightAware
07:06PM 35.6990 -76.4280 195° South 487 560 34,000  Level FlightAware
07:07PM 35.6330 -76.4500 195° South 487 560 34,000  Level FlightAware
07:07PM 35.5420 -76.4800 195° South 487 560 34,000  Level FlightAware
07:08PM 35.4760 -76.5020 195° South 487 560 34,000  Level FlightAware
07:09PM 35.4090 -76.5240 195° South 487 560 34,000  Level FlightAware
07:09PM 35.3200 -76.5530 195° South 487 560 34,000  Level FlightAware
07:10PM 35.2540 -76.5750 195° South 487 560 34,000  Level FlightAware
07:11PM 35.1350 -76.6140 195° South 487 560 34,000  Level FlightAware
07:12PM 35.0650 -76.6370 195° South 487 560 34,000  Level FlightAware
07:12PM 34.9980 -76.6590 195° South 487 560 34,000  Level FlightAware
07:13PM 34.7358 -76.7497 195° South 493 567 34,000  Level Washington Center
07:14PM 34.6039 -76.7931 195° South 500 575 34,000  Level Washington Center
07:15PM 34.4719 -76.8367 195° South 495 570 34,000  Level Washington Center
07:16PM 34.3400 -76.8822 196° South 495 570 34,000  Level Washington Center
07:20PM 33.8300 -77.0428 195° South 507 583 34,000  Level Jacksonville Center
07:21PM 33.6964 -77.0867 195° South 502 578 34,000  Level Jacksonville Center
07:22PM 33.5608 -77.1281 194° South 497 572 34,000  Level Jacksonville Center
07:23PM 33.4314 -77.1711 196° South 497 572 34,000  Level Jacksonville Center
07:24PM 33.2994 -77.2119 195° South 497 572 34,000  Level Jacksonville Center
07:25PM 33.1681 -77.2550 195° South 492 566 34,000  Level Jacksonville Center
07:26PM 33.0361 -77.2956 194° South 492 566 34,000  Level Jacksonville Center
07:27PM 32.9086 -77.3333 194° South 487 560 34,000  Level Jacksonville Center
07:28PM 32.7769 -77.3758 195° South 487 560 34,000  Level Jacksonville Center
07:29PM 32.6469 -77.4136 194° South 487 560 34,000  Level Jacksonville Center
07:30PM 32.5175 -77.4583 196° South 487 560 34,000  Level Jacksonville Center
07:31PM 32.3875 -77.4956 194° South 487 560 34,000  Level Jacksonville Center
07:32PM 32.2578 -77.5350 194° South 487 560 34,000  Level Jacksonville Center
07:33PM 32.1300 -77.5744 195° South 487 560 34,000  Level Jacksonville Center
07:34PM 31.9961 -77.6164 195° South 487 560 34,000  Level Jacksonville Center
07:35PM 31.8636 -77.6411 189° South 487 560 34,000  Level Jacksonville Center
07:36PM 31.7283 -77.6536 184° South 487 560 34,000 -60 Level Jacksonville Center
07:37PM 31.5969 -77.6564 181° South 479 551 33,900  Descending Jacksonville Center
07:38PM 31.4617 -77.6639 183° South 484 557 34,000  Climbing Jacksonville Center
07:39PM 31.3286 -77.6761 184° South 478 550 34,000  Level Jacksonville Center
07:40PM 31.1953 -77.6836 183° South 478 550 34,000  Level Jacksonville Center
07:41PM 31.0622 -77.6933 184° South 478 550 34,000  Level Jacksonville Center
07:42PM 30.9267 -77.7008 183° South 478 550 34,000 -60 Level Jacksonville Center
07:44PM 30.6611 -77.7356 186° South 492 566 33,900 -60 Descending Miami Center
07:45PM 30.5233 -77.7633 190° South 492 566 33,900  Level Miami Center
07:46PM 30.3983 -77.7961 193° South 492 566 34,000  Climbing Miami Center
07:47PM 30.2667 -77.8286 192° South 485 558 34,000  Level Miami Center
07:48PM 30.1433 -77.8633 194° South 476 548 34,000  Level Miami Center
07:49PM 30.0017 -77.8789 185° South 482 555 34,000  Level Miami Center
07:50PM 29.8761 -77.9111 193° South 482 555 34,000  Level Miami Center
07:51PM 29.7425 -77.9361 189° South 482 555 34,000 -60 Level Miami Center
07:52PM 29.6089 -77.9658 191° South 489 563 33,900  Descending Miami Center
07:53PM 29.4833 -77.9956 192° South 489 563 34,000  Climbing Miami Center
07:54PM 29.3622 -78.0253 192° South 471 542 34,000  Level Miami Center
07:55PM 29.2244 -78.0453 187° South 477 549 34,000  Level Miami Center
07:56PM 29.0947 -78.0722 190° South 477 549 34,000 -60 Level Miami Center
07:57PM 28.9819 -78.0972 191° South 471 542 33,900  Descending Miami Center
07:58PM 28.8564 -78.1242 191° South 471 542 34,000  Climbing Miami Center
07:59PM 28.7186 -78.1486 189° South 471 542 34,000  Level Miami Center
08:04PM 27.9970 -78.2900 189° South 486 559 34,000  Level FlightAware
08:05PM 27.8970 -78.3100 190° South 485 558 34,000  Level FlightAware
08:05PM 27.8140 -78.3270 190° South 484 557 34,000  Level FlightAware
08:06PM 27.7240 -78.3450 190° South 474 545 34,000  Level FlightAware
08:07PM 27.6380 -78.3620 190° South 474 545 34,000  Level FlightAware
08:08PM 27.5410 -78.3820 190° South 482 555 34,000  Level FlightAware
08:08PM 27.4570 -78.3980 190° South 482 555 34,000  Level FlightAware
08:09PM 27.3650 -78.4170 190° South 487 560 34,000  Level FlightAware
08:10PM 27.2370 -78.4420 190° South 489 563 34,000  Level FlightAware
08:10PM 27.1480 -78.4600 190° South 490 564 34,000  Level FlightAware
08:12PM 27.0140 -78.4870 190° South 491 565 34,000  Level FlightAware
08:12PM 26.9200 -78.5050 190° South 493 567 34,000  Level FlightAware
08:13PM 26.8220 -78.5250 190° South 487 560 34,000  Level FlightAware
08:14PM 26.7290 -78.5430 190° South 490 564 34,000  Level FlightAware
08:14PM 26.6180 -78.5650 190° South 501 577 34,000  Level FlightAware
08:15PM 26.5300 -78.5820 190° South 501 577 34,000  Level FlightAware
08:16PM 26.4420 -78.6000 190° South 491 565 34,000  Level FlightAware
08:16PM 26.3540 -78.6170 190° South 489 563 34,000  Level FlightAware
08:17PM 26.2700 -78.6330 190° South 490 564 34,000  Level FlightAware
08:18PM 26.1690 -78.6530 190° South 490 564 34,000  Level FlightAware
08:18PM 26.0770 -78.6720 191° South 500 575 34,000  Level FlightAware
08:19PM 25.9870 -78.6990 195° South 497 572 34,000  Level FlightAware
08:20PM 25.8930 -78.7280 196° South 495 570 34,000  Level FlightAware
08:20PM 25.8150 -78.7510 195° South 494 568 34,000  Level FlightAware
08:21PM 25.7270 -78.7780 195° South 486 559 34,000 240 Level FlightAware
08:22PM 25.5970 -78.7890 184° South 495 570 34,400 600 Climbing FlightAware
08:23PM 25.4970 -78.7880 179° South 493 567 35,000 360 Climbing FlightAware
08:23PM 25.4000 -78.7890 181° South 494 568 35,000  Level FlightAware
08:24PM 25.3060 -78.7890 180° South 493 567 35,000  Level FlightAware
08:25PM 25.2320 -78.7900 181° South 492 566 35,000  Level FlightAware
08:25PM 25.1450 -78.7910 181° South 483 556 35,000  Level FlightAware
08:26PM 25.0450 -78.7910 180° South 482 555 35,000  Level FlightAware
08:27PM 24.9460 -78.7920 181° South 481 554 35,000  Level FlightAware
08:27PM 24.8510 -78.7930 181° South 479 551 35,000  Level FlightAware
08:28PM 24.7530 -78.7940 181° South 485 558 35,000  Level FlightAware
08:29PM 24.6530 -78.7950 181° South 484 557 35,000  Level FlightAware
08:29PM 24.5890 -78.7950 180° South 483 556 35,000  Level FlightAware
08:30PM 24.4890 -78.7960 181° South 482 555 35,000  Level FlightAware
08:31PM 24.4190 -78.7960 180° South 482 555 35,000  Level FlightAware
08:32PM 24.3100 -78.7970 180° South 480 552 35,000  Level FlightAware
08:32PM 24.2420 -78.7970 180° South 480 552 35,000  Level FlightAware
08:33PM 24.1740 -78.7970 180° South 480 552 35,000  Level FlightAware
08:34PM 24.0480 -78.7990 181° South 480 552 35,000  Level FlightAware
08:34PM 23.9800 -78.7990 180° South 480 552 35,000  Level FlightAware
08:35PM 23.8890 -78.7990 180° South 480 552 35,000  Level FlightAware
08:36PM 23.8210 -78.7990 180° South 480 552 35,000  Level FlightAware
08:36PM 23.7300 -78.7990 180° South 480 552 35,000  Level FlightAware
08:37PM 23.6630 -78.7990 180° South 480 552 35,000  Level FlightAware
08:38PM 23.5950 -78.7990 180° South 480 552 35,000  Level FlightAware
08:38PM 23.5040 -78.7990 180° South 480 552 35,000  Level FlightAware
08:39PM 23.4360 -78.7990 180° South 480 552 35,000  Level FlightAware
08:40PM 23.3660 -78.7990 180° South 480 552 35,000  Level FlightAware
08:40PM 23.2960 -78.7990 180° South 480 552 35,000  Level FlightAware
08:41PM 23.2060 -78.7990 180° South 480 552 35,000  Level FlightAware
08:42PM 23.1380 -78.7990 180° South 480 552 35,000  Level FlightAware
08:42PM 23.0450 -78.7990 180° South 480 552 35,000  Level FlightAware
08:43PM 22.9770 -78.7990 180° South 480 552 35,000  Level FlightAware
08:46PM 22.6493 -78.7993 180° South  Level FlightAware Approximate
08:47PM 22.5208 -78.7995 180° South  Level FlightAware Approximate
08:48PM 22.3923 -78.7996 180° South  Level FlightAware Approximate
08:49PM 22.2638 -78.7997 180° South  Level FlightAware Approximate
08:50PM 22.1353 -78.7999 180° South  Level FlightAware Approximate
08:51PM 22.0068 -78.8000 180° South  Level FlightAware Approximate
08:52PM 21.8785 -78.8082 184° South  Level FlightAware Approximate
08:53PM 21.7502 -78.8168 184° South  Level FlightAware Approximate
08:54PM 21.6220 -78.8255 184° South  Level FlightAware Approximate
08:55PM 21.4937 -78.8341 184° South  Level FlightAware Approximate
08:56PM 21.3654 -78.8427 184° South  Level FlightAware Approximate
08:57PM 21.2372 -78.8513 184° South  Level FlightAware Approximate
08:58PM 21.1089 -78.8598 184° South  Level FlightAware Approximate
08:59PM 20.9807 -78.8684 184° South  Level FlightAware Approximate
09:00PM 20.8524 -78.8769 184° South  Level FlightAware Approximate
09:01PM 20.7241 -78.8855 184° South  Level FlightAware Approximate
09:02PM 20.5959 -78.8940 184° South  Level FlightAware Approximate
09:03PM 20.4676 -78.9025 184° South  Level FlightAware Approximate
09:04PM 20.3394 -78.9110 184° South  Level FlightAware Approximate
09:05PM 20.2111 -78.9194 184° South  Level FlightAware Approximate
09:06PM 20.0828 -78.9279 184° South  Level FlightAware Approximate
09:07PM 19.9546 -78.9360 183° South  Level FlightAware Approximate
09:08PM 19.8262 -78.9435 183° South  Level FlightAware Approximate
09:09PM 19.6979 -78.9509 183° South  Level FlightAware Approximate
09:10PM 19.5696 -78.9584 183° South  Level FlightAware Approximate
09:11PM 19.4413 -78.9658 183° South  Level FlightAware Approximate
09:12PM 19.3130 -78.9732 183° South  Level FlightAware Approximate
09:13PM 19.1846 -78.9806 183° South  Level FlightAware Approximate
09:14PM 19.0563 -78.9880 183° South  Level FlightAware Approximate
09:15PM 18.9280 -78.9954 183° South  Level FlightAware Approximate
09:16PM 18.7997 -79.0028 183° South  Level FlightAware Approximate
09:17PM 18.6714 -79.0102 183° South  Level FlightAware Approximate
09:18PM 18.5430 -79.0175 183° South  Level FlightAware Approximate
09:19PM 18.4147 -79.0249 183° South  Level FlightAware Approximate
09:20PM 18.2864 -79.0322 183° South  Level FlightAware Approximate
09:21PM 18.1581 -79.0396 183° South  Level FlightAware Approximate
09:22PM 18.0298 -79.0469 183° South  Level FlightAware Approximate
09:23PM 17.9014 -79.0542 183° South  Level FlightAware Approximate
09:24PM 17.7731 -79.0614 183° South  Level FlightAware Approximate
09:25PM 17.6448 -79.0687 183° South  Level FlightAware Approximate
09:26PM 17.5165 -79.0760 183° South  Level FlightAware Approximate
09:27PM 17.3882 -79.0833 183° South  Level FlightAware Approximate
09:28PM 17.2598 -79.0905 183° South  Level FlightAware Approximate
09:29PM 17.1315 -79.0977 183° South  Level FlightAware Approximate
09:30PM 17.0032 -79.1050 183° South  Level FlightAware Approximate
09:31PM 16.8749 -79.1122 183° South  Level FlightAware Approximate
09:32PM 16.7466 -79.1194 183° South  Level FlightAware Approximate
09:33PM 16.6182 -79.1266 183° South  Level FlightAware Approximate
09:34PM 16.4899 -79.1338 183° South  Level FlightAware Approximate
09:35PM 16.3616 -79.1410 183° South  Level FlightAware Approximate
09:36PM 16.2333 -79.1482 183° South  Level FlightAware Approximate
09:37PM 16.1050 -79.1553 183° South  Level FlightAware Approximate
09:38PM 15.9766 -79.1625 183° South  Level FlightAware Approximate
09:39PM 15.8483 -79.1696 183° South  Level FlightAware Approximate
09:40PM 15.7200 -79.1768 183° South  Level FlightAware Approximate
09:41PM 15.5917 -79.1839 183° South  Level FlightAware Approximate
09:42PM 15.4633 -79.1910 183° South  Level FlightAware Approximate
09:43PM 15.3350 -79.1982 183° South  Level FlightAware Approximate
09:44PM 15.2067 -79.2053 183° South  Level FlightAware Approximate
09:45PM 15.0784 -79.2123 183° South  Level FlightAware Approximate
09:46PM 14.9500 -79.2195 183° South  Level FlightAware Approximate
09:47PM 14.8217 -79.2266 183° South  Level FlightAware Approximate
09:48PM 14.6934 -79.2338 183° South  Level FlightAware Approximate
09:49PM 14.5651 -79.2409 183° South  Level FlightAware Approximate
09:50PM 14.4367 -79.2481 183° South  Level FlightAware Approximate
09:51PM 14.3084 -79.2552 183° South  Level FlightAware Approximate
09:52PM 14.1801 -79.2623 183° South  Level FlightAware Approximate
09:53PM 14.0518 -79.2694 183° South  Level FlightAware Approximate
09:54PM 13.9195 -79.2768 183° South  Level FlightAware Approximate
09:55PM 13.7872 -79.2841 183° South  Level FlightAware Approximate
09:56PM 13.6549 -79.2914 183° South  Level FlightAware Approximate
09:57PM 13.5225 -79.2987 183° South  Level FlightAware Approximate
09:58PM 13.3902 -79.3060 183° South  Level FlightAware Approximate
09:59PM 13.2579 -79.3133 183° South  Level FlightAware Approximate
10:00PM 13.1256 -79.3206 183° South  Level FlightAware Approximate
10:01PM 12.9933 -79.3278 183° South  Level FlightAware Approximate
10:01PM 12.3190 -79.3820 183° South 469 540 35,000  Level FlightAware
10:02PM 12.8610 -79.3351 183° South  Level FlightAware Approximate
10:02PM 12.1920 -79.3870 182° South 469 540 35,000  Level FlightAware
10:02PM 12.0920 -79.3920 183° South 468 539 35,000  Level FlightAware
10:03PM 12.0040 -79.3960 183° South 468 539 35,000  Level FlightAware
10:04PM 11.9150 -79.4000 183° South 468 539 35,000  Level FlightAware
10:04PM 11.8330 -79.4040 183° South 468 539 35,000  Level FlightAware
10:05PM 11.7150 -79.4100 183° South 470 541 35,000  Level FlightAware
10:06PM 11.6260 -79.4140 183° South 479 551 35,000  Level FlightAware
10:06PM 11.5380 -79.4180 183° South 479 551 35,000  Level FlightAware
10:07PM 11.4470 -79.4230 183° South 480 552 35,000  Level FlightAware
10:08PM 11.3460 -79.4270 182° South 481 554 35,000  Level FlightAware
10:09PM 11.2590 -79.4310 183° South 482 555 35,000  Level FlightAware
10:09PM 11.1690 -79.4360 183° South 481 554 35,000  Level FlightAware
10:10PM 11.0710 -79.4400 182° South 481 554 35,000  Level FlightAware
10:11PM 10.9680 -79.4450 183° South 480 552 35,000  Level FlightAware
10:11PM 10.8680 -79.4500 183° South 470 541 35,000  Level FlightAware
10:12PM 10.7780 -79.4540 182° South 469 540 35,000  Level FlightAware
10:13PM 10.6890 -79.4580 183° South 468 539 35,000  Level FlightAware
10:14PM 10.5920 -79.4630 183° South 467 537 35,000  Level FlightAware
10:14PM 10.4910 -79.4670 182° South 466 536 35,000 -720 Level FlightAware
10:15PM 10.4060 -79.4720 183° South 464 534 34,000 -2,220 Descending FlightAware
10:16PM 10.3040 -79.4780 183° South 464 534 31,900 -2,580 Descending FlightAware
10:16PM 10.2190 -79.4830 183° South 464 534 30,400 -2,280 Descending FlightAware
10:17PM 10.1220 -79.4880 183° South 447 514 28,700 -2,280 Descending FlightAware
10:18PM 10.0390 -79.4930 183° South 437 503 27,200 -2,220 Descending FlightAware
10:19PM 9.9460 -79.4980 183° South 434 499 25,600 -2,220 Descending FlightAware
10:19PM 9.8650 -79.5020 183° South 415 478 24,100 -2,100 Descending FlightAware
10:20PM 9.7890 -79.5070 184° South 405 466 22,800 -1,980 Descending FlightAware
10:21PM 9.7210 -79.5100 182° South 405 466 21,600 -2,100 Descending FlightAware
10:21PM 9.6440 -79.5150 184° South 387 445 20,200 -1,980 Descending FlightAware
10:22PM 9.5720 -79.5190 183° South 385 443 19,000 -1,860 Descending FlightAware
10:23PM 9.5010 -79.5220 182° South 370 426 17,700 -1,920 Descending FlightAware
10:23PM 9.4220 -79.5270 184° South 371 427 16,300 -1,860 Descending FlightAware
10:24PM 9.3530 -79.5310 183° South 355 409 15,100 -1,680 Descending FlightAware
10:25PM 9.2780 -79.5400 187° South 362 417 13,900 -1,740 Descending FlightAware
10:25PM 9.2120 -79.5520 190° South 357 411 12,700 -1,500 Descending FlightAware
10:26PM 9.1400 -79.5640 189° South 329 379 11,800 -1,320 Descending FlightAware
10:27PM 9.0800 -79.5740 189° South 312 359 10,900 -1,260 Descending FlightAware
10:27PM 9.0280 -79.5820 189° South 290 334 10,200 -720 Descending FlightAware
10:28PM 8.9860 -79.5890 189° South 290 334 10,000 -240 Descending FlightAware
10:28PM 8.9590 -79.5930 188° South 290 334 10,000 -2,880 Level FlightAware
10:29PM 8.9110 -79.6020 190° South 295 339 7,600 -3,360 Descending FlightAware
10:29PM 8.8730 -79.6090 190° South 279 321 6,900 -960 Descending FlightAware
10:32PM 8.9462 -79.4445 37° Northeast  Level FlightAware Approximate
10:33PM 9.0576 -79.3721 31° Northeast  Level FlightAware Approximate
10:33PM 8.8890 -79.4770 31° Northeast 3,700  Level FlightAware
10:34PM 8.9350 -79.4520 28° Northeast 202 232 3,100 -1,080 Descending FlightAware
10:34PM 8.9530 -79.4420 29° Northeast 169 194 2,200 -1,500 Descending FlightAware
10:35PM 8.9770 -79.4300 26° Northeast 168 193 1,800 -900 Descending FlightAware
10:35PM 8.9940 -79.4230 22° Northeast 161 185 1,400 -960 Descending FlightAware
10:35PM 9.0070 -79.4160 28° Northeast 152 175 1,100 -960 Descending FlightAware
10:36PM 9.0240 -79.4060 30° Northeast 150 173 700 -900 Descending FlightAware
10:36PM 9.0430 -79.3950 30° Northeast 148 170 300 -840 Descending FlightAware
10:37PM 9.0570 -79.3870 29° Northeast 115 132 -720 Descending FlightAware
10:37PM 9.0640 -79.3840 23° Northeast 23 26  Level FlightAware
10:37PM 9.0650 -79.3840 360° North 19 22  Level FlightAware
10:38PM 9.0660 -79.3840 360° North 11 13  Level FlightAware
10:38PM 9.0660 -79.3850 270° West 5 6  Level FlightAware